createdAt,value
2023-06-28T00:04:44.528Z,2.08
2023-06-28T00:09:46.311Z,2.60
2023-06-28T00:14:48.177Z,2.60
2023-06-28T00:19:50.038Z,1.90
2023-06-28T00:24:52.050Z,2.25
2023-06-28T00:29:54.911Z,2.45
2023-06-28T00:34:57.228Z,2.00
2023-06-28T00:39:59.739Z,2.05
2023-06-28T00:45:01.640Z,2.72
2023-06-28T00:50:04.516Z,2.10
2023-06-28T00:55:06.870Z,2.55
2023-06-28T01:00:10.850Z,2.33
2023-06-28T01:05:14.902Z,2.03
2023-06-28T01:10:18.572Z,2.25
2023-06-28T01:15:21.724Z,2.45
2023-06-28T01:20:23.725Z,2.47
2023-06-28T01:25:25.895Z,2.28
2023-06-28T01:30:27.952Z,2.15
2023-06-28T01:35:32.682Z,2.08
2023-06-28T01:40:37.432Z,1.98
2023-06-28T01:45:39.466Z,2.13
2023-06-28T01:50:42.301Z,2.00
2023-06-28T01:55:44.349Z,2.53
2023-06-28T02:00:46.200Z,2.40
2023-06-28T02:05:48.045Z,2.45
2023-06-28T02:10:49.875Z,2.15
2023-06-28T02:15:51.975Z,2.47
2023-06-28T02:20:53.812Z,2.13
2023-06-28T02:25:57.335Z,2.40
2023-06-28T02:31:01.374Z,2.40
2023-06-28T02:36:03.271Z,2.72
2023-06-28T02:41:05.105Z,3.58
2023-06-28T02:46:07.232Z,2.13
2023-06-28T02:51:09.034Z,2.38
2023-06-28T02:56:14.031Z,2.58
2023-06-28T03:01:16.065Z,2.75
2023-06-28T03:06:18.143Z,2.28
2023-06-28T03:11:20.012Z,2.15
2023-06-28T03:16:23.642Z,3.08
2023-06-28T03:21:25.454Z,3.03
2023-06-28T03:26:27.447Z,1.90
2023-06-28T03:31:29.265Z,2.40
2023-06-28T03:36:33.015Z,2.58
2023-06-28T03:41:34.822Z,2.45
2023-06-28T03:46:36.826Z,2.35
2023-06-28T03:51:38.740Z,2.97
2023-06-28T03:56:40.789Z,2.35
2023-06-28T04:01:42.606Z,2.42
2023-06-28T04:06:44.595Z,2.25
2023-06-28T04:11:46.416Z,1.88
2023-06-28T04:16:48.210Z,1.75
2023-06-28T04:21:50.115Z,2.05
2023-06-28T04:26:51.971Z,1.77
2023-06-28T04:31:54.050Z,1.73
2023-06-28T04:37:14.952Z,2.00
2023-06-28T04:42:17.690Z,2.13
2023-06-28T04:47:19.676Z,2.22
2023-06-28T04:52:24.133Z,2.10
2023-06-28T04:57:25.980Z,2.10
2023-06-28T05:02:28.917Z,2.03
2023-06-28T05:07:30.835Z,2.22
2023-06-28T05:12:32.837Z,2.25
2023-06-28T05:17:34.765Z,2.38
2023-06-28T05:22:42.228Z,2.17
2023-06-28T05:27:44.102Z,2.03
2023-06-28T05:32:46.144Z,2.35
2023-06-28T05:37:48.053Z,2.00
2023-06-28T05:42:49.889Z,2.20
2023-06-28T05:47:52.331Z,2.38
2023-06-28T05:52:54.261Z,2.13
2023-06-28T05:57:56.064Z,2.58
2023-06-28T06:02:57.937Z,2.22
2023-06-28T06:07:59.850Z,2.08
2023-06-28T06:13:01.655Z,2.47
2023-06-28T06:18:03.550Z,2.55
2023-06-28T06:23:05.442Z,2.17
2023-06-28T06:28:07.320Z,2.28
2023-06-28T06:33:09.277Z,2.70
2023-06-28T06:38:11.318Z,2.50
2023-06-28T06:43:14.100Z,2.13
2023-06-28T06:48:15.922Z,3.17
2023-06-28T06:53:18.237Z,2.85
2023-06-28T06:58:20.091Z,3.00
2023-06-28T07:03:21.973Z,2.80
2023-06-28T07:08:23.787Z,2.67
2023-06-28T07:13:25.608Z,2.55
2023-06-28T07:18:27.621Z,2.88
2023-06-28T07:23:29.584Z,2.90
2023-06-28T07:28:31.468Z,2.38
2023-06-28T07:33:33.459Z,4.15
2023-06-28T07:38:35.802Z,3.38
2023-06-28T07:43:37.911Z,3.60
2023-06-28T07:48:39.789Z,3.53
2023-06-28T07:53:43.485Z,2.95
2023-06-28T07:58:45.296Z,3.80
2023-06-28T08:03:47.355Z,3.30
2023-06-28T08:08:49.332Z,3.35
2023-06-28T08:13:51.943Z,3.00
2023-06-28T08:18:53.797Z,3.78
2023-06-28T08:23:55.714Z,3.60
2023-06-28T08:29:00.544Z,3.03
2023-06-28T08:34:04.083Z,2.80
2023-06-28T08:39:05.907Z,2.53
2023-06-28T08:44:12.705Z,2.47
2023-06-28T08:49:15.733Z,2.92
2023-06-28T08:54:18.050Z,2.50
2023-06-28T08:59:21.484Z,2.35
2023-06-28T09:04:24.718Z,2.20
2023-06-28T09:09:29.096Z,2.08
2023-06-28T09:14:32.205Z,2.22
2023-06-28T09:19:34.149Z,2.45
2023-06-28T09:24:36.817Z,2.80
2023-06-28T09:29:38.764Z,2.22
2023-06-28T09:34:42.322Z,3.10
2023-06-28T09:39:45.789Z,2.90
2023-06-28T09:44:56.569Z,2.90
2023-06-28T09:50:01.607Z,3.13
2023-06-28T09:55:05.087Z,2.55
2023-06-28T10:00:08.360Z,3.38
2023-06-28T10:05:11.383Z,3.30
2023-06-28T10:10:14.098Z,2.83
2023-06-28T10:15:24.498Z,3.22
2023-06-28T10:20:26.400Z,3.40
2023-06-28T10:25:29.133Z,3.38
2023-06-28T10:30:31.977Z,3.35
2023-06-28T10:35:34.522Z,4.15
2023-06-28T10:40:36.587Z,3.47
2023-06-28T10:45:39.281Z,4.63
2023-06-28T10:50:43.048Z,4.03
2023-06-28T10:56:05.289Z,4.43
2023-06-28T11:01:31.714Z,4.53
2023-06-28T11:06:33.650Z,5.10
2023-06-28T11:11:36.631Z,4.93
2023-06-28T11:16:42.727Z,4.72
2023-06-28T11:21:49.663Z,4.63
2023-06-28T11:26:51.579Z,5.00
2023-06-28T11:31:56.996Z,5.53
2023-06-28T11:36:59.064Z,5.22
2023-06-28T11:42:04.254Z,5.40
2023-06-28T11:47:08.172Z,5.53
2023-06-28T11:52:11.011Z,5.85
2023-06-28T11:57:13.377Z,5.63
2023-06-28T12:02:15.342Z,5.63
2023-06-28T12:07:22.498Z,6.00
2023-06-28T12:12:34.287Z,5.97
2023-06-28T12:17:43.358Z,5.68
2023-06-28T12:22:47.312Z,5.82
2023-06-28T12:28:03.758Z,6.55
2023-06-28T12:33:08.905Z,7.28
2023-06-28T12:38:21.039Z,6.55
2023-06-28T12:43:26.894Z,6.05
2023-06-28T12:48:29.557Z,6.47
2023-06-28T12:53:31.575Z,7.13
2023-06-28T12:58:33.479Z,7.80
2023-06-28T13:03:36.436Z,7.55
2023-06-28T13:08:38.334Z,6.57
2023-06-28T13:13:40.184Z,7.10
2023-06-28T13:18:42.033Z,7.72
2023-06-28T13:23:44.051Z,8.35
2023-06-28T13:28:45.844Z,8.15
2023-06-28T13:33:47.818Z,7.32
2023-06-28T13:38:50.744Z,7.55
2023-06-28T13:43:52.657Z,8.18
2023-06-28T13:48:54.634Z,7.93
2023-06-28T13:53:56.575Z,6.90
2023-06-28T13:58:58.441Z,7.40
2023-06-28T14:04:00.362Z,7.75
2023-06-28T14:09:02.336Z,8.05
2023-06-28T14:14:04.216Z,8.85
2023-06-28T14:19:06.329Z,7.43
2023-06-28T14:24:09.034Z,8.68
2023-06-28T14:29:10.854Z,8.20
2023-06-28T14:34:12.687Z,8.50
2023-06-28T14:39:14.760Z,7.97
2023-06-28T14:44:16.645Z,9.07
2023-06-28T14:49:19.415Z,9.45
2023-06-28T14:54:21.479Z,9.32
2023-06-28T14:59:24.999Z,8.52
2023-06-28T15:04:28.961Z,9.27
2023-06-28T15:09:32.685Z,8.23
2023-06-28T15:14:37.900Z,8.77
2023-06-28T15:19:39.783Z,8.52
2023-06-28T15:24:41.634Z,8.93
2023-06-28T15:29:43.465Z,10.13
2023-06-28T15:34:45.309Z,10.60
2023-06-28T15:39:47.143Z,10.68
2023-06-28T15:44:48.952Z,10.55
2023-06-28T15:49:50.797Z,9.82
2023-06-28T15:54:52.875Z,9.60
2023-06-28T15:59:55.412Z,10.38
2023-06-28T16:04:57.620Z,9.85
2023-06-28T16:09:59.433Z,9.85
2023-06-28T16:15:01.360Z,8.85
2023-06-28T16:20:04.764Z,8.63
2023-06-28T16:25:07.622Z,10.00
2023-06-28T16:30:09.834Z,9.25
2023-06-28T16:35:11.731Z,8.93
2023-06-28T16:40:15.169Z,9.20
2023-06-28T16:45:17.046Z,9.27
2023-06-28T16:50:18.945Z,9.57
2023-06-28T16:55:21.488Z,9.10
2023-06-28T17:00:23.371Z,8.00
2023-06-28T17:05:25.217Z,8.13
2023-06-28T17:10:28.697Z,7.90
2023-06-28T17:15:30.573Z,8.45
2023-06-28T17:20:32.382Z,8.23
2023-06-28T17:25:35.256Z,8.13
2023-06-28T17:30:37.089Z,9.23
2023-06-28T17:35:38.897Z,8.07
2023-06-28T17:40:42.470Z,8.68
2023-06-28T17:45:45.258Z,8.98
2023-06-28T17:50:47.285Z,8.48
2023-06-28T17:55:49.149Z,8.95
2023-06-28T18:00:51.033Z,8.70
2023-06-28T18:05:52.889Z,8.35
2023-06-28T18:10:54.798Z,8.95
2023-06-28T18:15:56.597Z,9.77
2023-06-28T18:21:00.235Z,9.43
2023-06-28T18:26:04.160Z,9.20
2023-06-28T18:31:06.024Z,9.10
2023-06-28T18:36:10.261Z,9.80
2023-06-28T18:41:12.312Z,9.52
2023-06-28T18:46:14.191Z,9.07
2023-06-28T18:51:16.162Z,12.30
2023-06-28T18:56:17.983Z,9.95
2023-06-28T19:01:19.890Z,8.90
2023-06-28T19:06:22.201Z,9.23
2023-06-28T19:11:24.874Z,9.77
2023-06-28T19:16:26.884Z,9.27
2023-06-28T19:21:28.723Z,9.82
2023-06-28T19:26:30.533Z,11.02
2023-06-28T19:31:33.920Z,9.73
2023-06-28T19:36:37.564Z,9.30
2023-06-28T19:41:39.466Z,8.90
2023-06-28T19:46:41.396Z,9.80
2023-06-28T19:51:43.187Z,9.68
2023-06-28T19:56:45.128Z,9.85
2023-06-28T20:01:46.962Z,9.48
2023-06-28T20:06:49.051Z,9.70
2023-06-28T20:11:51.027Z,9.75
2023-06-28T20:16:53.702Z,9.43
2023-06-28T20:21:55.878Z,9.27
2023-06-28T20:26:57.753Z,10.10
2023-06-28T20:31:59.630Z,9.50
2023-06-28T20:37:01.497Z,9.82
2023-06-28T20:42:03.472Z,10.00
2023-06-28T20:47:07.421Z,9.75
2023-06-28T20:52:09.409Z,10.25
2023-06-28T20:57:11.501Z,9.38
2023-06-28T21:02:13.302Z,10.05
2023-06-28T21:07:15.178Z,9.90
2023-06-28T21:12:17.248Z,10.70
2023-06-28T21:17:19.045Z,9.48
2023-06-28T21:22:21.777Z,10.90
2023-06-28T21:27:23.598Z,10.27
2023-06-28T21:32:25.525Z,10.60
2023-06-28T21:37:27.378Z,10.27
2023-06-28T21:42:29.333Z,10.18
2023-06-28T21:47:31.220Z,9.90
2023-06-28T21:52:33.208Z,11.20
2023-06-28T21:57:35.068Z,9.82
2023-06-28T22:02:36.935Z,11.32
2023-06-28T22:07:38.879Z,10.18
2023-06-28T22:12:41.129Z,9.93
2023-06-28T22:17:43.179Z,9.52
2023-06-28T22:22:45.237Z,10.18
2023-06-28T22:27:48.301Z,10.10
2023-06-28T22:32:50.437Z,10.85
2023-06-28T22:37:52.460Z,9.98
2023-06-28T22:42:54.285Z,10.68
2023-06-28T22:47:56.521Z,10.40
2023-06-28T22:52:58.444Z,10.40
2023-06-28T22:58:00.233Z,11.07
2023-06-28T23:03:02.065Z,10.65
2023-06-28T23:08:04.636Z,11.05
2023-06-28T23:13:11.770Z,11.20
2023-06-28T23:18:20.285Z,10.48
2023-06-28T23:23:23.466Z,11.57
2023-06-28T23:28:30.262Z,10.82
2023-06-28T23:33:32.234Z,11.05
2023-06-28T23:38:34.193Z,9.77
2023-06-28T23:43:36.246Z,10.57
2023-06-28T23:48:38.628Z,10.32
2023-06-28T23:53:40.831Z,11.02
2023-06-28T23:58:42.679Z,10.68
